sensor_id;sensor_type;location;lat;lon;timestamp;P1;durP1;ratioP1;P2;durP2;ratioP2
55170;SDS011;41060;47.510;8.680;2022-10-31T00:00:33;7.88;;;2.92;;
55170;SDS011;41060;47.510;8.680;2022-10-31T00:02:59;4.38;;;2.17;;
55170;SDS011;41060;47.510;8.680;2022-10-31T00:05:26;5.05;;;2.13;;
55170;SDS011;41060;47.510;8.680;2022-10-31T00:07:55;3.35;;;2.13;;
55170;SDS011;41060;47.510;8.680;2022-10-31T00:10:21;7.78;;;2.58;;
55170;SDS011;41060;47.510;8.680;2022-10-31T00:12:48;9.40;;;2.72;;
55170;SDS011;41060;47.510;8.680;2022-10-31T00:15:15;3.55;;;2.20;;
55170;SDS011;41060;47.510;8.680;2022-10-31T00:17:42;2.90;;;1.98;;
55170;SDS011;41060;47.510;8.680;2022-10-31T00:20:11;4.53;;;2.22;;
55170;SDS011;41060;47.510;8.680;2022-10-31T00:22:38;7.95;;;3.63;;
55170;SDS011;41060;47.510;8.680;2022-10-31T00:25:07;5.25;;;2.55;;
55170;SDS011;41060;47.510;8.680;2022-10-31T00:27:33;3.33;;;2.17;;
55170;SDS011;41060;47.510;8.680;2022-10-31T00:30:01;6.32;;;2.40;;
55170;SDS011;41060;47.510;8.680;2022-10-31T00:32:28;6.57;;;2.72;;
55170;SDS011;41060;47.510;8.680;2022-10-31T00:34:55;3.95;;;2.13;;
55170;SDS011;41060;47.510;8.680;2022-10-31T00:37:23;3.72;;;2.55;;
55170;SDS011;41060;47.510;8.680;2022-10-31T00:39:49;7.97;;;3.70;;
55170;SDS011;41060;47.510;8.680;2022-10-31T00:42:17;3.60;;;2.10;;
55170;SDS011;41060;47.510;8.680;2022-10-31T00:44:45;3.58;;;2.70;;
55170;SDS011;41060;47.510;8.680;2022-10-31T00:47:11;6.20;;;1.85;;
55170;SDS011;41060;47.510;8.680;2022-10-31T00:49:38;3.50;;;2.10;;
55170;SDS011;41060;47.510;8.680;2022-10-31T00:52:05;4.82;;;2.47;;
55170;SDS011;41060;47.510;8.680;2022-10-31T00:54:32;4.03;;;1.95;;
55170;SDS011;41060;47.510;8.680;2022-10-31T00:56:59;5.40;;;2.67;;
55170;SDS011;41060;47.510;8.680;2022-10-31T00:59:28;6.63;;;3.20;;
55170;SDS011;41060;47.510;8.680;2022-10-31T01:01:54;3.55;;;2.20;;
55170;SDS011;41060;47.510;8.680;2022-10-31T01:04:21;5.70;;;2.15;;
55170;SDS011;41060;47.510;8.680;2022-10-31T01:06:49;5.78;;;3.08;;
55170;SDS011;41060;47.510;8.680;2022-10-31T01:09:15;6.38;;;2.75;;
55170;SDS011;41060;47.510;8.680;2022-10-31T01:11:42;3.78;;;2.13;;
55170;SDS011;41060;47.510;8.680;2022-10-31T01:14:09;3.45;;;2.25;;
55170;SDS011;41060;47.510;8.680;2022-10-31T01:16:37;4.90;;;2.60;;
55170;SDS011;41060;47.510;8.680;2022-10-31T01:19:04;3.90;;;2.40;;
55170;SDS011;41060;47.510;8.680;2022-10-31T01:21:31;5.40;;;1.70;;
55170;SDS011;41060;47.510;8.680;2022-10-31T01:23:58;4.07;;;2.20;;
55170;SDS011;41060;47.510;8.680;2022-10-31T01:26:27;6.05;;;2.88;;
55170;SDS011;41060;47.510;8.680;2022-10-31T01:28:57;4.45;;;2.08;;
55170;SDS011;41060;47.510;8.680;2022-10-31T01:31:26;4.35;;;1.75;;
55170;SDS011;41060;47.510;8.680;2022-10-31T01:33:55;3.40;;;1.85;;
55170;SDS011;41060;47.510;8.680;2022-10-31T01:36:23;3.30;;;2.10;;
55170;SDS011;41060;47.510;8.680;2022-10-31T01:38:52;6.32;;;2.53;;
55170;SDS011;41060;47.510;8.680;2022-10-31T01:41:22;3.28;;;2.20;;
55170;SDS011;41060;47.510;8.680;2022-10-31T01:43:51;5.60;;;2.42;;
55170;SDS011;41060;47.510;8.680;2022-10-31T01:46:20;3.60;;;2.05;;
55170;SDS011;41060;47.510;8.680;2022-10-31T01:48:51;3.20;;;1.90;;
55170;SDS011;41060;47.510;8.680;2022-10-31T01:51:25;4.72;;;2.15;;
55170;SDS011;41060;47.510;8.680;2022-10-31T01:53:58;8.60;;;2.40;;
55170;SDS011;41060;47.510;8.680;2022-10-31T01:56:27;4.13;;;2.13;;
55170;SDS011;41060;47.510;8.680;2022-10-31T01:58:54;7.35;;;3.30;;
55170;SDS011;41060;47.510;8.680;2022-10-31T02:01:26;3.80;;;2.38;;
55170;SDS011;41060;47.510;8.680;2022-10-31T02:03:56;4.22;;;1.98;;
55170;SDS011;41060;47.510;8.680;2022-10-31T02:06:27;2.28;;;1.67;;
55170;SDS011;41060;47.510;8.680;2022-10-31T02:09:00;4.78;;;2.28;;
55170;SDS011;41060;47.510;8.680;2022-10-31T02:11:29;3.35;;;2.10;;
55170;SDS011;41060;47.510;8.680;2022-10-31T02:13:59;4.82;;;2.28;;
55170;SDS011;41060;47.510;8.680;2022-10-31T02:16:28;2.88;;;1.90;;
55170;SDS011;41060;47.510;8.680;2022-10-31T02:18:55;4.00;;;2.20;;
55170;SDS011;41060;47.510;8.680;2022-10-31T02:21:23;3.15;;;1.73;;
55170;SDS011;41060;47.510;8.680;2022-10-31T02:27:09;4.55;;;2.00;;
55170;SDS011;41060;47.510;8.680;2022-10-31T02:29:54;4.10;;;2.20;;
55170;SDS011;41060;47.510;8.680;2022-10-31T02:32:33;6.13;;;2.13;;
55170;SDS011;41060;47.510;8.680;2022-10-31T02:35:11;4.20;;;2.30;;
55170;SDS011;41060;47.510;8.680;2022-10-31T02:37:47;5.90;;;2.08;;
55170;SDS011;41060;47.510;8.680;2022-10-31T02:40:23;4.05;;;2.08;;
55170;SDS011;41060;47.510;8.680;2022-10-31T02:42:55;4.43;;;2.20;;
55170;SDS011;41060;47.510;8.680;2022-10-31T02:45:29;3.58;;;2.10;;
55170;SDS011;41060;47.510;8.680;2022-10-31T02:48:03;5.22;;;1.63;;
55170;SDS011;41060;47.510;8.680;2022-10-31T02:50:37;4.53;;;2.00;;
55170;SDS011;41060;47.510;8.680;2022-10-31T02:53:07;5.25;;;2.08;;
55170;SDS011;41060;47.510;8.680;2022-10-31T02:55:51;2.90;;;1.90;;
55170;SDS011;41060;47.510;8.680;2022-10-31T02:58:24;4.30;;;2.17;;
55170;SDS011;41060;47.510;8.680;2022-10-31T03:01:00;2.97;;;1.55;;
55170;SDS011;41060;47.510;8.680;2022-10-31T03:03:40;2.70;;;1.70;;
55170;SDS011;41060;47.510;8.680;2022-10-31T03:06:15;1.90;;;1.30;;
55170;SDS011;41060;47.510;8.680;2022-10-31T03:08:50;2.95;;;1.92;;
55170;SDS011;41060;47.510;8.680;2022-10-31T03:11:22;3.20;;;2.03;;
55170;SDS011;41060;47.510;8.680;2022-10-31T03:13:57;8.45;;;1.77;;
55170;SDS011;41060;47.510;8.680;2022-10-31T03:16:27;3.33;;;1.95;;
55170;SDS011;41060;47.510;8.680;2022-10-31T03:19:03;1.77;;;1.30;;
55170;SDS011;41060;47.510;8.680;2022-10-31T03:21:35;7.88;;;2.08;;
55170;SDS011;41060;47.510;8.680;2022-10-31T03:24:06;3.03;;;1.40;;
55170;SDS011;41060;47.510;8.680;2022-10-31T03:26:35;4.85;;;2.15;;
55170;SDS011;41060;47.510;8.680;2022-10-31T03:29:08;4.50;;;2.55;;
55170;SDS011;41060;47.510;8.680;2022-10-31T03:31:40;6.47;;;4.38;;
55170;SDS011;41060;47.510;8.680;2022-10-31T03:34:15;4.80;;;2.00;;
55170;SDS011;41060;47.510;8.680;2022-10-31T03:36:44;4.57;;;2.55;;
55170;SDS011;41060;47.510;8.680;2022-10-31T03:39:16;3.45;;;2.05;;
55170;SDS011;41060;47.510;8.680;2022-10-31T03:41:47;7.95;;;2.45;;
55170;SDS011;41060;47.510;8.680;2022-10-31T03:44:20;4.05;;;2.22;;
55170;SDS011;41060;47.510;8.680;2022-10-31T03:46:49;4.75;;;2.35;;
55170;SDS011;41060;47.510;8.680;2022-10-31T03:49:18;5.88;;;2.00;;
55170;SDS011;41060;47.510;8.680;2022-10-31T03:51:46;5.28;;;2.17;;
55170;SDS011;41060;47.510;8.680;2022-10-31T03:54:23;3.53;;;2.22;;
55170;SDS011;41060;47.510;8.680;2022-10-31T03:56:54;3.13;;;2.15;;
55170;SDS011;41060;47.510;8.680;2022-10-31T03:59:24;4.28;;;2.47;;
55170;SDS011;41060;47.510;8.680;2022-10-31T04:01:56;7.15;;;3.03;;
55170;SDS011;41060;47.510;8.680;2022-10-31T04:04:28;4.10;;;2.88;;
55170;SDS011;41060;47.510;8.680;2022-10-31T04:06:56;3.92;;;2.15;;
55170;SDS011;41060;47.510;8.680;2022-10-31T04:09:27;5.45;;;2.22;;
55170;SDS011;41060;47.510;8.680;2022-10-31T04:11:58;8.40;;;2.95;;
55170;SDS011;41060;47.510;8.680;2022-10-31T04:14:27;3.55;;;2.10;;
55170;SDS011;41060;47.510;8.680;2022-10-31T04:16:57;2.58;;;1.73;;
55170;SDS011;41060;47.510;8.680;2022-10-31T04:19:27;5.13;;;2.15;;
55170;SDS011;41060;47.510;8.680;2022-10-31T04:21:54;3.72;;;2.25;;
55170;SDS011;41060;47.510;8.680;2022-10-31T04:24:21;3.63;;;2.58;;
55170;SDS011;41060;47.510;8.680;2022-10-31T04:26:48;4.10;;;2.90;;
55170;SDS011;41060;47.510;8.680;2022-10-31T04:29:15;3.38;;;2.20;;
55170;SDS011;41060;47.510;8.680;2022-10-31T04:31:42;6.07;;;2.30;;
55170;SDS011;41060;47.510;8.680;2022-10-31T04:34:09;8.15;;;3.00;;
55170;SDS011;41060;47.510;8.680;2022-10-31T04:36:37;3.15;;;2.15;;
55170;SDS011;41060;47.510;8.680;2022-10-31T04:39:04;4.85;;;2.85;;
55170;SDS011;41060;47.510;8.680;2022-10-31T04:41:31;5.00;;;2.28;;
55170;SDS011;41060;47.510;8.680;2022-10-31T04:43:57;3.83;;;2.25;;
55170;SDS011;41060;47.510;8.680;2022-10-31T04:46:25;5.00;;;2.47;;
55170;SDS011;41060;47.510;8.680;2022-10-31T04:48:51;4.82;;;1.60;;
55170;SDS011;41060;47.510;8.680;2022-10-31T04:51:18;4.00;;;2.08;;
55170;SDS011;41060;47.510;8.680;2022-10-31T04:53:47;3.58;;;2.35;;
55170;SDS011;41060;47.510;8.680;2022-10-31T04:56:14;2.70;;;1.70;;
55170;SDS011;41060;47.510;8.680;2022-10-31T04:58:40;5.28;;;1.98;;
55170;SDS011;41060;47.510;8.680;2022-10-31T05:01:10;4.72;;;2.30;;
55170;SDS011;41060;47.510;8.680;2022-10-31T05:03:37;3.80;;;2.58;;
55170;SDS011;41060;47.510;8.680;2022-10-31T05:06:04;3.97;;;2.30;;
55170;SDS011;41060;47.510;8.680;2022-10-31T05:08:32;2.92;;;2.00;;
55170;SDS011;41060;47.510;8.680;2022-10-31T05:11:03;5.03;;;2.20;;
55170;SDS011;41060;47.510;8.680;2022-10-31T05:13:30;2.80;;;1.88;;
55170;SDS011;41060;47.510;8.680;2022-10-31T05:15:58;3.75;;;2.30;;
55170;SDS011;41060;47.510;8.680;2022-10-31T05:18:24;3.15;;;2.03;;
55170;SDS011;41060;47.510;8.680;2022-10-31T05:20:51;2.80;;;2.08;;
55170;SDS011;41060;47.510;8.680;2022-10-31T05:23:18;3.00;;;2.25;;
55170;SDS011;41060;47.510;8.680;2022-10-31T05:25:45;3.53;;;2.60;;
55170;SDS011;41060;47.510;8.680;2022-10-31T05:28:13;3.45;;;2.00;;
55170;SDS011;41060;47.510;8.680;2022-10-31T05:30:40;4.03;;;2.20;;
55170;SDS011;41060;47.510;8.680;2022-10-31T05:33:07;5.28;;;2.15;;
55170;SDS011;41060;47.510;8.680;2022-10-31T05:35:34;2.22;;;1.88;;
55170;SDS011;41060;47.510;8.680;2022-10-31T05:38:01;3.92;;;2.28;;
55170;SDS011;41060;47.510;8.680;2022-10-31T05:40:28;2.92;;;2.38;;
55170;SDS011;41060;47.510;8.680;2022-10-31T05:42:55;3.00;;;2.00;;
55170;SDS011;41060;47.510;8.680;2022-10-31T05:45:25;2.72;;;1.98;;
55170;SDS011;41060;47.510;8.680;2022-10-31T05:47:53;2.67;;;2.15;;
55170;SDS011;41060;47.510;8.680;2022-10-31T05:50:25;6.03;;;2.17;;
55170;SDS011;41060;47.510;8.680;2022-10-31T05:52:56;3.00;;;1.80;;
55170;SDS011;41060;47.510;8.680;2022-10-31T05:55:25;2.45;;;1.88;;
55170;SDS011;41060;47.510;8.680;2022-10-31T05:57:52;4.75;;;2.63;;
55170;SDS011;41060;47.510;8.680;2022-10-31T06:00:19;4.47;;;2.80;;
55170;SDS011;41060;47.510;8.680;2022-10-31T06:02:53;5.43;;;2.65;;
55170;SDS011;41060;47.510;8.680;2022-10-31T06:05:24;3.15;;;2.30;;
55170;SDS011;41060;47.510;8.680;2022-10-31T06:07:54;4.10;;;2.55;;
55170;SDS011;41060;47.510;8.680;2022-10-31T06:10:21;4.85;;;3.10;;
55170;SDS011;41060;47.510;8.680;2022-10-31T06:12:47;3.78;;;2.35;;
55170;SDS011;41060;47.510;8.680;2022-10-31T06:15:15;2.92;;;2.13;;
55170;SDS011;41060;47.510;8.680;2022-10-31T06:17:42;3.47;;;2.40;;
55170;SDS011;41060;47.510;8.680;2022-10-31T06:20:10;3.72;;;2.55;;
55170;SDS011;41060;47.510;8.680;2022-10-31T06:22:38;4.43;;;2.63;;
55170;SDS011;41060;47.510;8.680;2022-10-31T06:25:05;3.20;;;1.90;;
55170;SDS011;41060;47.510;8.680;2022-10-31T06:27:31;4.93;;;2.63;;
55170;SDS011;41060;47.510;8.680;2022-10-31T06:29:59;3.60;;;2.17;;
55170;SDS011;41060;47.510;8.680;2022-10-31T06:32:25;5.88;;;2.53;;
55170;SDS011;41060;47.510;8.680;2022-10-31T06:34:52;2.72;;;2.15;;
55170;SDS011;41060;47.510;8.680;2022-10-31T06:37:21;3.53;;;2.30;;
55170;SDS011;41060;47.510;8.680;2022-10-31T06:39:47;5.50;;;2.65;;
55170;SDS011;41060;47.510;8.680;2022-10-31T06:42:15;3.28;;;2.22;;
55170;SDS011;41060;47.510;8.680;2022-10-31T06:44:42;2.88;;;2.50;;
55170;SDS011;41060;47.510;8.680;2022-10-31T06:47:09;5.35;;;2.85;;
55170;SDS011;41060;47.510;8.680;2022-10-31T06:49:35;3.67;;;2.53;;
55170;SDS011;41060;47.510;8.680;2022-10-31T06:52:03;3.50;;;2.45;;
55170;SDS011;41060;47.510;8.680;2022-10-31T06:54:32;2.55;;;1.73;;
55170;SDS011;41060;47.510;8.680;2022-10-31T06:56:58;3.78;;;2.58;;
55170;SDS011;41060;47.510;8.680;2022-10-31T06:59:26;4.30;;;2.10;;
55170;SDS011;41060;47.510;8.680;2022-10-31T07:01:52;3.60;;;2.33;;
55170;SDS011;41060;47.510;8.680;2022-10-31T07:04:19;2.90;;;2.17;;
55170;SDS011;41060;47.510;8.680;2022-10-31T07:06:46;3.42;;;2.33;;
55170;SDS011;41060;47.510;8.680;2022-10-31T07:09:13;4.07;;;2.00;;
55170;SDS011;41060;47.510;8.680;2022-10-31T07:11:41;2.25;;;2.03;;
55170;SDS011;41060;47.510;8.680;2022-10-31T07:14:08;3.40;;;2.30;;
55170;SDS011;41060;47.510;8.680;2022-10-31T07:16:35;3.53;;;2.47;;
55170;SDS011;41060;47.510;8.680;2022-10-31T07:19:02;4.93;;;2.45;;
55170;SDS011;41060;47.510;8.680;2022-10-31T07:21:29;3.83;;;2.45;;
55170;SDS011;41060;47.510;8.680;2022-10-31T07:23:56;2.35;;;2.10;;
55170;SDS011;41060;47.510;8.680;2022-10-31T07:26:22;8.38;;;2.90;;
55170;SDS011;41060;47.510;8.680;2022-10-31T07:28:51;11.52;;;2.03;;
55170;SDS011;41060;47.510;8.680;2022-10-31T07:31:18;3.65;;;1.85;;
55170;SDS011;41060;47.510;8.680;2022-10-31T07:33:47;5.05;;;3.03;;
55170;SDS011;41060;47.510;8.680;2022-10-31T07:36:14;7.80;;;2.28;;
55170;SDS011;41060;47.510;8.680;2022-10-31T07:38:41;3.17;;;2.25;;
55170;SDS011;41060;47.510;8.680;2022-10-31T07:41:08;3.85;;;2.15;;
55170;SDS011;41060;47.510;8.680;2022-10-31T07:43:35;2.83;;;2.17;;
55170;SDS011;41060;47.510;8.680;2022-10-31T07:46:03;2.33;;;1.90;;
55170;SDS011;41060;47.510;8.680;2022-10-31T07:48:30;2.78;;;1.98;;
55170;SDS011;41060;47.510;8.680;2022-10-31T07:50:57;2.88;;;2.08;;
55170;SDS011;41060;47.510;8.680;2022-10-31T07:53:24;3.40;;;2.22;;
55170;SDS011;41060;47.510;8.680;2022-10-31T07:55:51;5.90;;;2.88;;
55170;SDS011;41060;47.510;8.680;2022-10-31T07:58:18;2.83;;;2.20;;
55170;SDS011;41060;47.510;8.680;2022-10-31T08:00:45;2.42;;;2.13;;
55170;SDS011;41060;47.510;8.680;2022-10-31T08:03:15;3.03;;;1.83;;
55170;SDS011;41060;47.510;8.680;2022-10-31T08:05:44;3.78;;;2.67;;
55170;SDS011;41060;47.510;8.680;2022-10-31T08:08:11;3.45;;;1.83;;
55170;SDS011;41060;47.510;8.680;2022-10-31T08:10:38;3.25;;;2.35;;
55170;SDS011;41060;47.510;8.680;2022-10-31T08:13:07;3.78;;;2.25;;
55170;SDS011;41060;47.510;8.680;2022-10-31T08:15:35;3.50;;;2.10;;
55170;SDS011;41060;47.510;8.680;2022-10-31T08:18:04;4.13;;;2.60;;
55170;SDS011;41060;47.510;8.680;2022-10-31T08:20:33;3.38;;;2.38;;
55170;SDS011;41060;47.510;8.680;2022-10-31T08:23:00;3.83;;;2.20;;
55170;SDS011;41060;47.510;8.680;2022-10-31T08:25:29;3.80;;;2.45;;
55170;SDS011;41060;47.510;8.680;2022-10-31T08:27:58;4.95;;;2.30;;
55170;SDS011;41060;47.510;8.680;2022-10-31T08:30:25;4.15;;;2.30;;
55170;SDS011;41060;47.510;8.680;2022-10-31T08:32:57;3.63;;;2.70;;
55170;SDS011;41060;47.510;8.680;2022-10-31T08:35:26;3.72;;;2.22;;
55170;SDS011;41060;47.510;8.680;2022-10-31T08:37:54;5.55;;;2.83;;
55170;SDS011;41060;47.510;8.680;2022-10-31T08:40:21;4.28;;;2.40;;
55170;SDS011;41060;47.510;8.680;2022-10-31T08:42:55;4.82;;;2.45;;
55170;SDS011;41060;47.510;8.680;2022-10-31T08:45:23;2.97;;;2.08;;
55170;SDS011;41060;47.510;8.680;2022-10-31T08:47:51;3.25;;;2.20;;
55170;SDS011;41060;47.510;8.680;2022-10-31T08:50:18;4.13;;;2.20;;
55170;SDS011;41060;47.510;8.680;2022-10-31T08:52:44;3.33;;;2.17;;
55170;SDS011;41060;47.510;8.680;2022-10-31T08:55:13;4.68;;;2.63;;
55170;SDS011;41060;47.510;8.680;2022-10-31T08:57:40;3.00;;;2.28;;
55170;SDS011;41060;47.510;8.680;2022-10-31T09:00:07;19.00;;;2.45;;
55170;SDS011;41060;47.510;8.680;2022-10-31T09:02:35;4.15;;;2.50;;
55170;SDS011;41060;47.510;8.680;2022-10-31T09:05:03;3.72;;;2.63;;
55170;SDS011;41060;47.510;8.680;2022-10-31T09:07:30;3.92;;;2.90;;
55170;SDS011;41060;47.510;8.680;2022-10-31T09:09:58;3.38;;;3.08;;
55170;SDS011;41060;47.510;8.680;2022-10-31T09:12:26;4.40;;;3.13;;
55170;SDS011;41060;47.510;8.680;2022-10-31T09:14:52;3.85;;;2.28;;
55170;SDS011;41060;47.510;8.680;2022-10-31T09:17:19;5.13;;;2.85;;
55170;SDS011;41060;47.510;8.680;2022-10-31T09:19:46;14.35;;;3.60;;
55170;SDS011;41060;47.510;8.680;2022-10-31T09:22:13;8.00;;;2.88;;
55170;SDS011;41060;47.510;8.680;2022-10-31T09:24:45;4.43;;;2.70;;
55170;SDS011;41060;47.510;8.680;2022-10-31T09:27:12;5.80;;;2.92;;
55170;SDS011;41060;47.510;8.680;2022-10-31T09:29:40;4.25;;;2.47;;
55170;SDS011;41060;47.510;8.680;2022-10-31T09:32:07;12.15;;;2.97;;
55170;SDS011;41060;47.510;8.680;2022-10-31T09:34:34;4.28;;;2.70;;
55170;SDS011;41060;47.510;8.680;2022-10-31T09:37:01;6.20;;;2.28;;
55170;SDS011;41060;47.510;8.680;2022-10-31T09:39:28;9.00;;;2.58;;
55170;SDS011;41060;47.510;8.680;2022-10-31T09:42:07;7.43;;;2.97;;
55170;SDS011;41060;47.510;8.680;2022-10-31T09:44:47;5.90;;;2.83;;
55170;SDS011;41060;47.510;8.680;2022-10-31T09:47:21;4.35;;;2.40;;
55170;SDS011;41060;47.510;8.680;2022-10-31T09:50:05;3.97;;;3.10;;
55170;SDS011;41060;47.510;8.680;2022-10-31T09:52:41;6.27;;;2.80;;
55170;SDS011;41060;47.510;8.680;2022-10-31T09:55:14;6.57;;;2.70;;
55170;SDS011;41060;47.510;8.680;2022-10-31T09:57:43;6.20;;;3.10;;
55170;SDS011;41060;47.510;8.680;2022-10-31T10:00:15;6.43;;;3.55;;
55170;SDS011;41060;47.510;8.680;2022-10-31T10:02:46;4.07;;;2.90;;
55170;SDS011;41060;47.510;8.680;2022-10-31T10:05:17;6.57;;;3.45;;
55170;SDS011;41060;47.510;8.680;2022-10-31T10:07:50;5.93;;;4.22;;
55170;SDS011;41060;47.510;8.680;2022-10-31T10:10:26;5.88;;;3.22;;
55170;SDS011;41060;47.510;8.680;2022-10-31T10:13:09;10.90;;;4.35;;
55170;SDS011;41060;47.510;8.680;2022-10-31T10:15:56;8.17;;;4.70;;
55170;SDS011;41060;47.510;8.680;2022-10-31T10:18:32;9.00;;;3.60;;
55170;SDS011;41060;47.510;8.680;2022-10-31T10:21:14;6.10;;;3.80;;
55170;SDS011;41060;47.510;8.680;2022-10-31T10:23:56;8.18;;;4.60;;
55170;SDS011;41060;47.510;8.680;2022-10-31T10:26:31;15.27;;;6.53;;
55170;SDS011;41060;47.510;8.680;2022-10-31T10:29:06;17.17;;;9.45;;
55170;SDS011;41060;47.510;8.680;2022-10-31T10:31:45;20.17;;;7.35;;
55170;SDS011;41060;47.510;8.680;2022-10-31T10:34:17;12.45;;;5.60;;
55170;SDS011;41060;47.510;8.680;2022-10-31T10:36:47;10.65;;;4.72;;
55170;SDS011;41060;47.510;8.680;2022-10-31T10:39:22;7.82;;;4.05;;
55170;SDS011;41060;47.510;8.680;2022-10-31T10:41:53;12.85;;;5.00;;
55170;SDS011;41060;47.510;8.680;2022-10-31T10:44:53;6.50;;;3.83;;
55170;SDS011;41060;47.510;8.680;2022-10-31T10:47:40;6.82;;;4.13;;
55170;SDS011;41060;47.510;8.680;2022-10-31T10:50:10;8.57;;;3.72;;
55170;SDS011;41060;47.510;8.680;2022-10-31T10:52:46;5.95;;;3.08;;
55170;SDS011;41060;47.510;8.680;2022-10-31T10:55:26;6.25;;;2.90;;
55170;SDS011;41060;47.510;8.680;2022-10-31T10:57:58;6.45;;;3.53;;
55170;SDS011;41060;47.510;8.680;2022-10-31T11:00:29;5.10;;;2.92;;
55170;SDS011;41060;47.510;8.680;2022-10-31T11:02:58;4.63;;;3.22;;
55170;SDS011;41060;47.510;8.680;2022-10-31T11:05:27;8.00;;;3.10;;
55170;SDS011;41060;47.510;8.680;2022-10-31T11:07:59;4.88;;;3.17;;
55170;SDS011;41060;47.510;8.680;2022-10-31T11:10:26;4.43;;;3.40;;
55170;SDS011;41060;47.510;8.680;2022-10-31T11:13:04;4.32;;;3.40;;
55170;SDS011;41060;47.510;8.680;2022-10-31T11:15:35;4.32;;;3.20;;
55170;SDS011;41060;47.510;8.680;2022-10-31T11:18:12;5.22;;;4.05;;
55170;SDS011;41060;47.510;8.680;2022-10-31T11:20:50;7.25;;;3.35;;
55170;SDS011;41060;47.510;8.680;2022-10-31T11:23:19;5.45;;;3.60;;
55170;SDS011;41060;47.510;8.680;2022-10-31T11:25:49;6.53;;;4.07;;
55170;SDS011;41060;47.510;8.680;2022-10-31T11:28:17;6.40;;;3.90;;
55170;SDS011;41060;47.510;8.680;2022-10-31T11:30:45;5.55;;;3.20;;
55170;SDS011;41060;47.510;8.680;2022-10-31T11:33:17;5.53;;;3.53;;
55170;SDS011;41060;47.510;8.680;2022-10-31T11:35:50;9.55;;;3.13;;
55170;SDS011;41060;47.510;8.680;2022-10-31T11:38:21;5.85;;;3.20;;
55170;SDS011;41060;47.510;8.680;2022-10-31T11:40:51;5.15;;;3.15;;
55170;SDS011;41060;47.510;8.680;2022-10-31T11:43:20;4.38;;;3.20;;
55170;SDS011;41060;47.510;8.680;2022-10-31T11:45:48;6.43;;;3.47;;
55170;SDS011;41060;47.510;8.680;2022-10-31T11:48:15;7.25;;;3.50;;
55170;SDS011;41060;47.510;8.680;2022-10-31T11:50:47;5.57;;;3.28;;
55170;SDS011;41060;47.510;8.680;2022-10-31T11:53:16;4.30;;;3.13;;
55170;SDS011;41060;47.510;8.680;2022-10-31T11:55:46;5.32;;;3.33;;
55170;SDS011;41060;47.510;8.680;2022-10-31T11:58:21;5.30;;;3.35;;
55170;SDS011;41060;47.510;8.680;2022-10-31T12:00:49;4.47;;;3.42;;
55170;SDS011;41060;47.510;8.680;2022-10-31T12:03:33;6.25;;;3.88;;
55170;SDS011;41060;47.510;8.680;2022-10-31T12:06:09;9.40;;;4.32;;
55170;SDS011;41060;47.510;8.680;2022-10-31T12:08:41;7.72;;;4.05;;
55170;SDS011;41060;47.510;8.680;2022-10-31T12:11:11;5.05;;;3.50;;
55170;SDS011;41060;47.510;8.680;2022-10-31T12:14:02;5.32;;;3.08;;
55170;SDS011;41060;47.510;8.680;2022-10-31T12:16:39;6.95;;;3.80;;
55170;SDS011;41060;47.510;8.680;2022-10-31T12:19:19;5.90;;;3.67;;
55170;SDS011;41060;47.510;8.680;2022-10-31T12:21:57;7.95;;;3.70;;
55170;SDS011;41060;47.510;8.680;2022-10-31T12:24:41;6.53;;;3.72;;
55170;SDS011;41060;47.510;8.680;2022-10-31T12:27:22;6.78;;;3.40;;
55170;SDS011;41060;47.510;8.680;2022-10-31T12:30:02;7.50;;;3.38;;
55170;SDS011;41060;47.510;8.680;2022-10-31T12:32:41;6.80;;;3.90;;
55170;SDS011;41060;47.510;8.680;2022-10-31T12:35:23;7.55;;;3.60;;
55170;SDS011;41060;47.510;8.680;2022-10-31T12:38:03;5.80;;;2.85;;
55170;SDS011;41060;47.510;8.680;2022-10-31T12:40:48;6.50;;;4.45;;
55170;SDS011;41060;47.510;8.680;2022-10-31T12:43:29;9.30;;;4.40;;
55170;SDS011;41060;47.510;8.680;2022-10-31T12:46:04;6.13;;;4.00;;
55170;SDS011;41060;47.510;8.680;2022-10-31T12:48:42;8.10;;;4.60;;
55170;SDS011;41060;47.510;8.680;2022-10-31T12:51:33;6.78;;;5.43;;
55170;SDS011;41060;47.510;8.680;2022-10-31T12:54:16;6.25;;;4.40;;
55170;SDS011;41060;47.510;8.680;2022-10-31T12:56:56;5.63;;;3.85;;
55170;SDS011;41060;47.510;8.680;2022-10-31T12:59:33;6.10;;;3.78;;
55170;SDS011;41060;47.510;8.680;2022-10-31T13:02:09;6.57;;;4.53;;
55170;SDS011;41060;47.510;8.680;2022-10-31T13:04:43;6.93;;;4.05;;
55170;SDS011;41060;47.510;8.680;2022-10-31T13:07:15;7.72;;;3.45;;
55170;SDS011;41060;47.510;8.680;2022-10-31T13:09:49;6.63;;;3.60;;
55170;SDS011;41060;47.510;8.680;2022-10-31T13:12:22;5.45;;;3.65;;
55170;SDS011;41060;47.510;8.680;2022-10-31T13:14:50;5.15;;;4.07;;
55170;SDS011;41060;47.510;8.680;2022-10-31T13:17:21;8.02;;;4.43;;
55170;SDS011;41060;47.510;8.680;2022-10-31T13:19:53;5.97;;;3.85;;
55170;SDS011;41060;47.510;8.680;2022-10-31T13:22:41;6.28;;;4.05;;
55170;SDS011;41060;47.510;8.680;2022-10-31T13:25:13;8.00;;;3.88;;
55170;SDS011;41060;47.510;8.680;2022-10-31T13:27:43;6.60;;;4.22;;
55170;SDS011;41060;47.510;8.680;2022-10-31T13:30:16;7.25;;;4.20;;
55170;SDS011;41060;47.510;8.680;2022-10-31T13:32:46;7.38;;;3.78;;
55170;SDS011;41060;47.510;8.680;2022-10-31T13:35:20;9.48;;;4.90;;
55170;SDS011;41060;47.510;8.680;2022-10-31T13:40:30;8.30;;;4.43;;
55170;SDS011;41060;47.510;8.680;2022-10-31T13:43:12;10.25;;;4.97;;
55170;SDS011;41060;47.510;8.680;2022-10-31T13:45:49;9.05;;;4.28;;
55170;SDS011;41060;47.510;8.680;2022-10-31T13:48:19;5.65;;;3.47;;
55170;SDS011;41060;47.510;8.680;2022-10-31T13:51:01;5.75;;;4.03;;
55170;SDS011;41060;47.510;8.680;2022-10-31T13:53:41;10.43;;;4.80;;
55170;SDS011;41060;47.510;8.680;2022-10-31T13:56:18;5.80;;;3.80;;
55170;SDS011;41060;47.510;8.680;2022-10-31T13:58:56;7.50;;;4.05;;
55170;SDS011;41060;47.510;8.680;2022-10-31T14:01:26;8.68;;;5.07;;
55170;SDS011;41060;47.510;8.680;2022-10-31T14:03:56;10.65;;;4.78;;
55170;SDS011;41060;47.510;8.680;2022-10-31T14:06:42;10.18;;;6.10;;
55170;SDS011;41060;47.510;8.680;2022-10-31T14:09:20;9.25;;;5.13;;
55170;SDS011;41060;47.510;8.680;2022-10-31T14:11:53;6.22;;;4.03;;
55170;SDS011;41060;47.510;8.680;2022-10-31T14:14:22;8.00;;;4.18;;
55170;SDS011;41060;47.510;8.680;2022-10-31T14:16:56;7.85;;;4.72;;
55170;SDS011;41060;47.510;8.680;2022-10-31T14:19:24;5.97;;;4.13;;
55170;SDS011;41060;47.510;8.680;2022-10-31T14:21:52;10.95;;;3.83;;
55170;SDS011;41060;47.510;8.680;2022-10-31T14:24:34;17.08;;;4.45;;
55170;SDS011;41060;47.510;8.680;2022-10-31T14:27:03;11.07;;;5.10;;
55170;SDS011;41060;47.510;8.680;2022-10-31T14:29:53;6.45;;;3.78;;
55170;SDS011;41060;47.510;8.680;2022-10-31T14:32:21;12.15;;;5.65;;
55170;SDS011;41060;47.510;8.680;2022-10-31T14:34:52;10.93;;;5.32;;
55170;SDS011;41060;47.510;8.680;2022-10-31T14:37:28;7.80;;;4.90;;
55170;SDS011;41060;47.510;8.680;2022-10-31T14:40:17;10.07;;;5.23;;
55170;SDS011;41060;47.510;8.680;2022-10-31T14:43:09;6.43;;;4.43;;
55170;SDS011;41060;47.510;8.680;2022-10-31T14:45:52;9.40;;;5.18;;
55170;SDS011;41060;47.510;8.680;2022-10-31T14:51:25;13.07;;;5.32;;
55170;SDS011;41060;47.510;8.680;2022-10-31T14:53:57;10.80;;;5.70;;
55170;SDS011;41060;47.510;8.680;2022-10-31T14:56:26;10.27;;;5.22;;
55170;SDS011;41060;47.510;8.680;2022-10-31T14:58:56;8.60;;;4.40;;
55170;SDS011;41060;47.510;8.680;2022-10-31T15:01:28;13.93;;;4.50;;
55170;SDS011;41060;47.510;8.680;2022-10-31T15:03:57;5.75;;;3.60;;
55170;SDS011;41060;47.510;8.680;2022-10-31T15:06:27;9.90;;;4.30;;
55170;SDS011;41060;47.510;8.680;2022-10-31T15:09:02;6.65;;;4.53;;
55170;SDS011;41060;47.510;8.680;2022-10-31T15:11:35;7.43;;;4.18;;
55170;SDS011;41060;47.510;8.680;2022-10-31T15:14:05;6.05;;;4.45;;
55170;SDS011;41060;47.510;8.680;2022-10-31T15:16:50;11.00;;;4.93;;